Time;durP1;ratioP1;P1;durP2;ratioP2;P2;SDS_P1;SDS_P2;PMS_P1;PMS_P2;Temp;Humidity;BMP_temperature;BMP_pressure;BME280_temperature;BME280_humidity;BME280_pressure;Samples;Min_cycle;Max_cycle;Signal;HPM_P1;HPM_P2
2021/01/24 00:01:58;;;;;;;1.92;1.45;;;3.80;94.40;;;;;;6265537;28;20114;-76
2021/01/24 00:04:59;;;;;;;1.63;1.52;;;3.90;94.90;;;;;;6243696;28;20029;-76
2021/01/24 00:07:59;;;;;;;1.40;1.30;;;3.60;95.50;;;;;;6258666;28;20034;-76
2021/01/24 00:11:00;;;;;;;2.35;1.48;;;3.40;95.40;;;;;;6241875;28;20116;-77
2021/01/24 00:14:01;;;;;;;1.25;1.15;;;3.00;95.40;;;;;;6225809;28;20021;-77
2021/01/24 00:17:01;;;;;;;1.08;1.08;;;3.00;95.30;;;;;;6242173;28;20515;-77
2021/01/24 00:20:03;;;;;;;2.53;1.60;;;3.00;95.20;;;;;;6242201;28;20032;-76
2021/01/24 00:23:03;;;;;;;1.42;1.27;;;3.00;94.80;;;;;;6265406;28;20045;-76
2021/01/24 00:26:04;;;;;;;2.90;1.35;;;3.40;95.20;;;;;;6265798;28;20032;-76
2021/01/24 00:29:04;;;;;;;1.50;1.33;;;3.80;95.60;;;;;;6267270;28;20021;-76
2021/01/24 00:32:05;;;;;;;2.45;1.20;;;3.70;95.10;;;;;;6265308;28;20029;-78
2021/01/24 00:35:09;;;;;;;1.40;1.30;;;2.90;94.70;;;;;;6246001;28;20029;-78
2021/01/24 00:38:10;;;;;;;1.67;1.40;;;2.90;99.90;;;;;;6265702;28;20032;-76
2021/01/24 00:41:11;;;;;;;1.58;1.48;;;3.30;94.90;;;;;;6265424;28;20079;-76
2021/01/24 00:44:12;;;;;;;1.10;1.10;;;3.50;94.70;;;;;;6251317;28;20056;-76
2021/01/24 00:47:14;;;;;;;1.60;1.50;;;3.40;94.50;;;;;;6270283;28;20051;-78
2021/01/24 00:50:14;;;;;;;1.17;1.17;;;3.50;93.90;;;;;;6248042;28;20064;-76
2021/01/24 00:53:15;;;;;;;1.58;1.45;;;3.40;94.30;;;;;;6247819;28;20303;-77
2021/01/24 00:56:15;;;;;;;2.45;1.45;;;3.50;93.30;;;;;;6253931;28;20486;-76
2021/01/24 00:59:16;;;;;;;1.70;1.60;;;4.10;93.70;;;;;;6248002;28;20108;-76
2021/01/24 01:02:16;;;;;;;1.63;1.52;;;4.00;93.70;;;;;;6252018;28;20053;-76
2021/01/24 01:05:17;;;;;;;1.77;1.67;;;3.20;94.20;;;;;;6252992;28;20036;-76
2021/01/24 01:08:18;;;;;;;2.03;1.85;;;3.50;94.00;;;;;;6270211;28;20395;-78
2021/01/24 01:11:18;;;;;;;2.00;1.60;;;2.80;94.00;;;;;;6269774;28;20041;-76
2021/01/24 01:14:19;;;;;;;1.95;1.75;;;3.20;94.70;;;;;;6254344;28;20168;-76
2021/01/24 01:17:19;;;;;;;1.83;1.73;;;3.50;94.80;;;;;;6247102;28;20025;-76
2021/01/24 01:20:20;;;;;;;1.92;1.83;;;3.20;95.00;;;;;;6247150;28;20146;-76
2021/01/24 01:23:21;;;;;;;2.05;1.85;;;3.40;95.70;;;;;;6249531;28;20040;-76
2021/01/24 01:26:21;;;;;;;2.97;2.20;;;3.20;95.30;;;;;;6269441;28;20025;-76
2021/01/24 01:29:22;;;;;;;2.08;1.88;;;2.50;95.60;;;;;;6270472;28;20031;-76
2021/01/24 01:32:23;;;;;;;3.03;2.17;;;2.80;95.30;;;;;;6269230;28;20422;-77
2021/01/24 01:35:23;;;;;;;2.33;1.83;;;2.90;95.00;;;;;;6252485;28;20017;-75
2021/01/24 01:38:24;;;;;;;2.50;2.30;;;2.60;95.80;;;;;;6270149;28;20029;-76
2021/01/24 01:41:31;;;;;;;2.20;2.00;;;2.20;99.90;;;;;;6269177;28;20125;-77
2021/01/24 01:44:32;;;;;;;3.13;1.80;;;2.20;99.90;;;;;;6269043;28;20032;-76
2021/01/24 01:47:33;;;;;;;2.47;1.85;;;2.20;99.90;;;;;;6252061;28;20029;-75
2021/01/24 01:50:33;;;;;;;3.10;2.00;;;2.60;99.90;;;;;;6252341;28;20037;-75
2021/01/24 01:53:36;;;;;;;1.90;1.80;;;1.00;99.90;;;;;;6253549;28;20565;-76
2021/01/24 01:56:36;;;;;;;1.63;1.52;;;1.90;99.90;;;;;;6228560;28;20029;-75
2021/01/24 01:59:37;;;;;;;1.90;1.80;;;1.90;99.90;;;;;;6246038;28;20065;-77
2021/01/24 02:02:57;;;;;;;2.28;2.05;;;2.00;99.90;;;;;;6244567;28;20054;-76
2021/01/24 02:06:15;;;;;;;2.10;2.00;;;2.10;99.90;;;;;;6246371;28;20031;-77
2021/01/24 02:09:32;;;;;;;1.77;1.67;;;1.90;98.90;;;;;;6229566;28;20017;-76
2021/01/24 02:12:33;;;;;;;1.67;1.58;;;2.00;93.30;;;;;;6268286;28;20102;-76
2021/01/24 02:15:34;;;;;;;2.10;1.90;;;2.60;94.70;;;;;;6269958;28;20029;-77
2021/01/24 02:18:35;;;;;;;1.80;1.70;;;2.60;94.90;;;;;;6268545;28;20116;-76
2021/01/24 02:21:36;;;;;;;2.50;2.20;;;2.60;94.80;;;;;;6250990;28;20037;-78
2021/01/24 02:24:40;;;;;;;2.45;2.17;;;2.90;94.90;;;;;;6268011;28;20037;-76
2021/01/24 02:27:53;;;;;;;2.45;2.25;;;2.80;94.70;;;;;;6251567;28;20072;-76
2021/01/24 02:30:53;;;;;;;2.30;1.90;;;3.20;95.00;;;;;;6251416;28;20033;-76
2021/01/24 02:33:54;;;;;;;1.90;1.80;;;2.80;94.60;;;;;;6229759;28;20562;-77
2021/01/24 02:36:55;;;;;;;2.72;2.15;;;3.30;94.60;;;;;;6227697;28;20021;-75
2021/01/24 02:39:55;;;;;;;1.92;1.83;;;2.60;94.10;;;;;;6244504;28;20029;-78
2021/01/24 02:42:56;;;;;;;2.30;2.10;;;1.80;99.90;;;;;;6227413;28;20045;-77
2021/01/24 02:45:56;;;;;;;2.08;1.98;;;1.80;99.90;;;;;;6243754;28;20060;-76
2021/01/24 02:48:57;;;;;;;1.83;1.73;;;1.90;99.90;;;;;;6227370;28;20029;-76
2021/01/24 02:51:58;;;;;;;1.88;1.77;;;1.70;99.90;;;;;;6234454;28;20126;-75
2021/01/24 02:54:58;;;;;;;1.80;1.70;;;1.90;99.90;;;;;;6236620;28;20627;-75
2021/01/24 02:57:59;;;;;;;1.45;1.35;;;1.90;99.90;;;;;;6227504;28;20022;-76
2021/01/24 03:01:00;;;;;;;1.55;1.45;;;;;;;;;;6244638;28;20058;-76
2021/01/24 03:04:02;;;;;;;1.17;1.13;;;1.80;99.90;;;;;;6243553;28;20080;-76
2021/01/24 03:07:04;;;;;;;1.67;1.58;;;1.70;99.90;;;;;;6267800;28;20024;-75
2021/01/24 03:10:05;;;;;;;1.90;1.80;;;;;;;;;;6250350;28;20029;-75
2021/01/24 03:13:11;;;;;;;2.15;1.95;;;1.80;97.50;;;;;;6266740;28;20025;-75
2021/01/24 03:16:12;;;;;;;1.70;1.60;;;1.70;99.90;;;;;;6267047;28;20355;-75
2021/01/24 03:19:13;;;;;;;1.58;1.48;;;;;;;;;;6253320;28;20026;-77
2021/01/24 03:22:14;;;;;;;1.83;1.73;;;1.80;96.80;;;;;;6243404;28;20029;-76
2021/01/24 03:25:15;;;;;;;2.00;1.90;;;1.70;97.90;;;;;;6242658;28;20048;-77
2021/01/24 03:28:16;;;;;;;1.80;1.70;;;3.00;92.70;;;;;;6244431;28;20029;-78
2021/01/24 03:31:17;;;;;;;1.88;1.77;;;2.40;91.60;;;;;;6242983;28;20029;-75
2021/01/24 03:34:22;;;;;;;1.88;1.77;;;3.00;92.60;;;;;;6226517;28;20033;-77
2021/01/24 03:37:22;;;;;;;2.10;2.00;;;2.30;92.90;;;;;;6226325;28;20033;-77
2021/01/24 03:40:23;;;;;;;1.77;1.67;;;2.40;93.00;;;;;;6267459;28;20035;-76
2021/01/24 03:43:24;;;;;;;1.98;1.88;;;2.30;92.70;;;;;;6256015;28;20096;-77
2021/01/24 03:46:24;;;;;;;2.05;1.95;;;2.80;92.80;;;;;;6244094;28;20034;-76
2021/01/24 03:49:25;;;;;;;2.42;2.22;;;2.10;93.30;;;;;;6243879;28;20464;-76
2021/01/24 03:52:25;;;;;;;2.65;2.25;;;2.10;93.30;;;;;;6267426;28;20028;-75
2021/01/24 03:55:26;;;;;;;2.40;2.20;;;3.00;93.70;;;;;;6266084;28;20413;-75
2021/01/24 03:58:27;;;;;;;2.30;2.10;;;2.30;93.50;;;;;;6266344;28;20067;-75
2021/01/24 04:01:29;;;;;;;2.80;2.00;;;1.90;93.30;;;;;;6266898;28;20057;-76
2021/01/24 04:04:29;;;;;;;2.20;2.00;;;1.90;92.60;;;;;;6249494;28;20029;-75
2021/01/24 04:07:30;;;;;;;2.50;2.30;;;2.40;92.90;;;;;;6267782;28;20477;-75
2021/01/24 04:10:31;;;;;;;3.17;2.33;;;1.70;92.20;;;;;;6266889;28;20060;-76
2021/01/24 04:13:31;;;;;;;2.20;2.08;;;2.00;92.10;;;;;;6267269;28;20071;-75
2021/01/24 04:16:32;;;;;;;2.92;2.20;;;1.80;92.00;;;;;;6265890;28;20044;-76
2021/01/24 04:19:33;;;;;;;3.83;2.40;;;1.70;91.60;;;;;;6271817;28;20021;-77
2021/01/24 04:22:33;;;;;;;3.00;2.33;;;2.30;91.60;;;;;;6270817;28;20378;-77
2021/01/24 04:25:34;;;;;;;3.13;2.40;;;2.60;90.90;;;;;;6266363;28;20034;-77
2021/01/24 04:28:35;;;;;;;2.55;2.28;;;1.80;90.40;;;;;;6271668;28;20029;-75
2021/01/24 04:31:35;;;;;;;3.90;2.30;;;1.50;90.10;;;;;;6272166;28;20454;-77
2021/01/24 04:34:36;;;;;;;2.80;2.60;;;1.70;90.00;;;;;;6270414;28;20025;-75
2021/01/24 04:37:36;;;;;;;2.75;2.55;;;1.70;90.40;;;;;;6271859;28;20032;-75
2021/01/24 04:40:37;;;;;;;4.45;2.55;;;2.70;90.00;;;;;;6270280;28;20040;-76
2021/01/24 04:43:37;;;;;;;3.95;2.88;;;1.60;88.10;;;;;;6271740;28;20409;-75
2021/01/24 04:46:38;;;;;;;3.45;2.85;;;2.50;90.00;;;;;;6270339;28;20036;-75
2021/01/24 04:49:39;;;;;;;4.82;3.10;;;1.40;89.30;;;;;;6253822;28;20079;-77
2021/01/24 04:52:39;;;;;;;2.92;2.63;;;1.60;89.00;;;;;;6231442;28;20021;-75
2021/01/24 04:55:40;;;;;;;3.35;2.72;;;1.10;88.70;;;;;;6270221;28;20032;-75
2021/01/24 04:58:41;;;;;;;3.30;2.80;;;2.20;88.70;;;;;;6241084;28;20100;-77
2021/01/24 05:01:41;;;;;;;4.88;2.72;;;1.30;88.50;;;;;;6246019;28;20046;-76
2021/01/24 05:04:43;;;;;;;4.55;3.20;;;1.40;89.50;;;;;;6253552;28;20033;-75
2021/01/24 05:07:51;;;;;;;3.35;2.83;;;2.00;88.70;;;;;;6253074;28;20120;-77
2021/01/24 05:10:54;;;;;;;4.65;2.90;;;2.10;88.90;;;;;;6246530;28;20116;-77
2021/01/24 05:14:15;;;;;;;3.22;2.92;;;1.30;87.30;;;;;;6269514;28;20359;-75
2021/01/24 05:17:16;;;;;;;4.38;3.20;;;1.00;85.20;;;;;;6271355;28;20048;-75
2021/01/24 05:20:21;;;;;;;4.20;2.92;;;2.10;88.50;;;;;;6253005;28;20082;-75
2021/01/24 05:23:22;;;;;;;4.30;3.10;;;1.00;88.10;;;;;;6236854;28;20047;-75
2021/01/24 05:26:25;;;;;;;3.63;3.00;;;1.60;87.70;;;;;;6253081;28;20033;-75
2021/01/24 05:29:26;;;;;;;3.97;2.88;;;1.20;87.30;;;;;;6252012;28;20029;-75
2021/01/24 05:32:26;;;;;;;4.65;2.75;;;1.80;87.00;;;;;;6270694;28;20064;-75
2021/01/24 05:35:27;;;;;;;3.17;2.72;;;1.20;86.10;;;;;;6269887;28;20095;-75
2021/01/24 05:38:29;;;;;;;2.92;2.67;;;1.50;86.00;;;;;;6269419;28;20356;-75
2021/01/24 05:41:30;;;;;;;2.95;2.65;;;1.20;85.70;;;;;;6269440;28;20043;-74
2021/01/24 05:44:30;;;;;;;3.78;2.72;;;2.20;84.80;;;;;;6229189;28;20452;-78
2021/01/24 05:47:32;;;;;;;5.43;2.58;;;1.90;84.40;;;;;;6245742;28;20030;-76
2021/01/24 05:50:34;;;;;;;2.38;2.17;;;1.50;84.30;;;;;;6255459;28;20078;-76
2021/01/24 05:53:38;;;;;;;2.90;2.60;;;2.20;85.20;;;;;;6269048;28;20124;-75
2021/01/24 05:56:39;;;;;;;3.05;2.28;;;1.50;84.30;;;;;;6270167;28;20264;-78
2021/01/24 05:59:52;;;;;;;4.18;2.60;;;1.50;82.60;;;;;;6269056;28;20974;-75
2021/01/24 06:02:53;;;;;;;4.65;2.40;;;1.80;82.60;;;;;;6268814;28;20119;-75
2021/01/24 06:05:53;;;;;;;3.35;2.50;;;1.20;82.40;;;;;;6236142;28;20033;-76
2021/01/24 06:08:54;;;;;;;2.95;2.53;;;1.70;82.20;;;;;;6269810;28;20108;-76
2021/01/24 06:11:55;;;;;;;4.03;2.65;;;-0.10;82.10;;;;;;6268721;28;20522;-75
2021/01/24 06:14:55;;;;;;;2.72;2.45;;;1.80;83.00;;;;;;6252099;28;20033;-75
2021/01/24 06:17:59;;;;;;;3.00;2.35;;;1.20;82.70;;;;;;6269116;28;20040;-75
2021/01/24 06:21:02;;;;;;;3.78;2.40;;;2.30;84.20;;;;;;6251683;28;20055;-78
2021/01/24 06:24:21;;;;;;;4.68;2.20;;;1.10;83.20;;;;;;6251816;28;20033;-75
2021/01/24 06:27:23;;;;;;;2.65;2.45;;;1.10;81.00;;;;;;6269497;28;20029;-75
2021/01/24 06:30:25;;;;;;;3.92;2.70;;;1.20;84.10;;;;;;6251756;28;20450;-76
2021/01/24 06:33:25;;;;;;;3.47;2.67;;;1.50;85.00;;;;;;6251359;28;20069;-76
2021/01/24 06:36:26;;;;;;;3.92;2.70;;;1.30;85.70;;;;;;6251686;28;20031;-76
2021/01/24 06:39:51;;;;;;;2.70;2.50;;;1.80;86.00;;;;;;6267848;28;20360;-77
2021/01/24 06:43:02;;;;;;;2.65;2.45;;;1.20;83.90;;;;;;6251332;28;20037;-76
2021/01/24 06:46:04;;;;;;;3.20;2.40;;;1.00;85.00;;;;;;6252140;28;20029;-78
2021/01/24 06:49:05;;;;;;;4.97;2.95;;;1.40;88.20;;;;;;6268559;28;20056;-77
2021/01/24 06:52:21;;;;;;;4.32;2.63;;;1.30;99.90;;;;;;6250944;28;20037;-76
2021/01/24 06:55:25;;;;;;;7.80;2.92;;;1.20;93.40;;;;;;6251165;28;20029;-78
2021/01/24 06:58:29;;;;;;;6.43;2.50;;;1.00;99.90;;;;;;6233330;28;20029;-76
2021/01/24 07:01:37;;;;;;;3.28;2.80;;;0.90;97.30;;;;;;6261779;28;20781;-77
2021/01/24 07:04:37;;;;;;;4.10;2.50;;;1.20;95.30;;;;;;6243146;28;20029;-76
2021/01/24 07:07:42;;;;;;;3.08;2.78;;;1.00;97.10;;;;;;6227166;28;20065;-77
2021/01/24 07:10:43;;;;;;;17.52;10.75;;;1.00;85.80;;;;;;6227816;28;20107;-78
2021/01/24 07:13:44;;;;;;;7.03;5.15;;;0.20;88.70;;;;;;6250408;28;20033;-76
2021/01/24 07:16:44;;;;;;;5.07;2.72;;;1.10;88.90;;;;;;6266914;28;20367;-77
2021/01/24 07:19:52;;;;;;;6.40;2.65;;;2.50;89.20;;;;;;6250353;28;20036;-77
2021/01/24 07:22:54;;;;;;;3.53;2.58;;;1.20;88.10;;;;;;6266984;28;20029;-77
2021/01/24 07:25:54;;;;;;;3.05;2.30;;;1.70;88.30;;;;;;6267047;28;20360;-76
2021/01/24 07:28:55;;;;;;;4.22;2.80;;;0.90;96.00;;;;;;6238056;28;20048;-75
2021/01/24 07:31:56;;;;;;;4.55;2.90;;;0.90;96.20;;;;;;6261512;28;20519;-77
2021/01/24 07:34:56;;;;;;;5.88;2.55;;;1.10;96.40;;;;;;6248888;28;20074;-78
2021/01/24 07:37:57;;;;;;;3.10;2.80;;;1.40;87.80;;;;;;6241965;28;20032;-75
2021/01/24 07:40:59;;;;;;;5.78;2.92;;;2.30;88.40;;;;;;6242665;28;20464;-77
2021/01/24 07:43:59;;;;;;;6.43;2.40;;;2.00;88.20;;;;;;6226542;28;20025;-77
2021/01/24 07:47:00;;;;;;;4.57;2.35;;;1.70;87.90;;;;;;6242733;28;20082;-76
2021/01/24 07:50:01;;;;;;;4.13;2.63;;;1.20;86.90;;;;;;6243757;28;20498;-77
2021/01/24 07:53:02;;;;;;;2.75;2.53;;;1.20;87.50;;;;;;6244067;28;20028;-77
2021/01/24 07:56:03;;;;;;;6.43;2.83;;;1.60;87.80;;;;;;6242618;28;20360;-76
2021/01/24 07:59:03;;;;;;;4.47;2.50;;;1.20;87.70;;;;;;6226087;28;20021;-77
2021/01/24 08:02:04;;;;;;;6.15;3.15;;;1.60;88.50;;;;;;6242118;28;20068;-77
2021/01/24 08:05:07;;;;;;;7.50;3.25;;;2.60;88.70;;;;;;6226273;28;20077;-79
2021/01/24 08:08:08;;;;;;;3.80;2.60;;;1.20;86.90;;;;;;6265816;28;20033;-77
2021/01/24 08:11:09;;;;;;;4.70;2.70;;;2.30;88.50;;;;;;6265939;28;20128;-77
2021/01/24 08:14:10;;;;;;;4.03;3.20;;;1.60;88.50;;;;;;6266554;28;20025;-78
2021/01/24 08:17:13;;;;;;;5.05;2.80;;;2.50;89.00;;;;;;6227836;28;20025;-77
2021/01/24 08:20:14;;;;;;;3.45;2.80;;;2.40;89.40;;;;;;6241720;28;20040;-77
2021/01/24 08:23:14;;;;;;;3.30;2.80;;;1.20;88.40;;;;;;6227776;28;20041;-76
2021/01/24 08:26:15;;;;;;;6.40;2.97;;;2.70;88.30;;;;;;6243651;28;20033;-77
2021/01/24 08:29:16;;;;;;;3.95;2.90;;;3.00;88.50;;;;;;6243361;28;20040;-77
2021/01/24 08:32:17;;;;;;;7.60;3.75;;;1.50;85.70;;;;;;6242232;28;20037;-78
2021/01/24 08:35:18;;;;;;;5.03;3.20;;;2.40;87.30;;;;;;6243300;28;20862;-74
2021/01/24 08:41:56;;;;;;;4.72;3.13;;;2.70;92.20;;;;;;6314370;27;20383;-77
2021/01/24 08:45:01;;;;;;;4.53;3.10;;;3.50;79.40;;;;;;6312968;28;20059;-79
2021/01/24 08:48:03;;;;;;;6.28;4.07;;;2.70;83.90;;;;;;6312668;28;20036;-77
2021/01/24 08:51:04;;;;;;;6.28;3.90;;;2.40;93.20;;;;;;6308062;28;20020;-77
2021/01/24 08:54:27;;;;;;;3.90;2.95;;;2.30;82.60;;;;;;6305138;28;20406;-77
2021/01/24 08:57:34;;;;;;;6.90;3.92;;;2.60;79.90;;;;;;6311293;28;20012;-78
2021/01/24 09:00:34;;;;;;;4.85;3.00;;;3.70;80.70;;;;;;6310551;28;20048;-77
2021/01/24 09:03:35;;;;;;;4.20;2.90;;;3.90;78.80;;;;;;6312092;28;20036;-79
2021/01/24 09:06:36;;;;;;;3.33;2.78;;;3.70;77.60;;;;;;6308559;28;20016;-78
2021/01/24 09:09:38;;;;;;;3.28;2.60;;;3.60;78.00;;;;;;6313034;28;20708;-83
2021/01/24 09:12:39;;;;;;;4.80;2.83;;;3.50;78.90;;;;;;6308547;28;20032;-79
2021/01/24 09:15:39;;;;;;;4.65;2.95;;;3.40;79.90;;;;;;6310548;28;20467;-79
2021/01/24 09:18:40;;;;;;;3.30;2.90;;;3.10;81.30;;;;;;6291673;28;20021;-76
2021/01/24 09:21:40;;;;;;;5.95;3.05;;;4.00;82.70;;;;;;6308051;28;20085;-77
2021/01/24 09:24:41;;;;;;;4.85;3.30;;;2.80;81.00;;;;;;6311130;28;20119;-80
2021/01/24 09:27:42;;;;;;;6.25;3.20;;;2.30;94.20;;;;;;6293507;28;20032;-77
2021/01/24 09:30:42;;;;;;;6.90;3.30;;;2.50;99.90;;;;;;6294965;28;20067;-76
2021/01/24 09:33:43;;;;;;;5.90;3.30;;;2.50;99.90;;;;;;6312618;28;20032;-80
2021/01/24 09:36:44;;;;;;;3.90;2.80;;;2.40;99.90;;;;;;6313688;28;20103;-76
2021/01/24 09:39:44;;;;;;;3.67;3.13;;;2.30;95.40;;;;;;6312986;28;20079;-77
2021/01/24 09:42:45;;;;;;;4.78;3.20;;;2.20;95.70;;;;;;6294627;28;20405;-77
2021/01/24 09:45:47;;;;;;;5.82;3.00;;;2.10;96.30;;;;;;6313252;28;20028;-76
2021/01/24 09:48:48;;;;;;;4.97;3.05;;;2.20;97.20;;;;;;6311611;28;20123;-77
2021/01/24 09:51:48;;;;;;;5.50;3.50;;;2.70;90.70;;;;;;6303274;28;20025;-77
2021/01/24 09:54:49;;;;;;;4.80;3.50;;;2.80;90.40;;;;;;6296396;28;20035;-77
2021/01/24 09:57:49;;;;;;;4.20;3.20;;;2.80;90.60;;;;;;6296719;28;20370;-79
2021/01/24 10:00:50;;;;;;;5.10;3.28;;;;;;;;;;6294752;28;20062;-78
2021/01/24 10:03:51;;;;;;;3.85;3.08;;;3.00;99.90;;;;;;6296055;28;20023;-78
2021/01/24 10:06:52;;;;;;;3.83;3.17;;;3.60;95.00;;;;;;6294705;28;20078;-77
2021/01/24 10:09:53;;;;;;;4.40;3.10;;;;;;;;;;6296030;28;20036;-77
2021/01/24 10:12:53;;;;;;;4.03;3.45;;;2.70;93.00;;;;;;6277843;28;20340;-76
2021/01/24 10:15:54;;;;;;;4.10;3.15;;;3.50;94.90;;;;;;6277452;28;20123;-80
2021/01/24 10:18:54;;;;;;;3.97;3.05;;;3.00;95.10;;;;;;6278421;28;20446;-80
2021/01/24 10:21:55;;;;;;;6.70;3.00;;;;;;;;;;6277650;28;20169;-80
2021/01/24 10:24:56;;;;;;;4.80;3.13;;;3.80;98.70;;;;;;6295682;28;20028;-78
2021/01/24 10:27:57;;;;;;;6.90;2.95;;;;;;;;;;6293327;28;20036;-78
2021/01/24 10:30:58;;;;;;;5.55;3.20;;;;;;;;;;6295759;28;20032;-79
2021/01/24 10:33:58;;;;;;;3.55;2.88;;;3.30;73.50;;;;;;6293862;28;20522;-79
2021/01/24 10:36:59;;;;;;;3.10;2.30;;;4.60;77.60;;;;;;6277656;28;20124;-78
2021/01/24 10:40:01;;;;;;;4.13;2.65;;;5.30;69.50;;;;;;6295087;28;20063;-76
2021/01/24 10:43:02;;;;;;;4.25;2.80;;;6.60;63.80;;;;;;6259859;28;20040;-77
2021/01/24 10:46:03;;;;;;;5.18;3.08;;;7.10;57.70;;;;;;6292934;28;20473;-81
2021/01/24 10:49:04;;;;;;;5.32;2.80;;;7.50;59.30;;;;;;6293191;28;20032;-80
2021/01/24 10:52:07;;;;;;;4.22;2.70;;;7.30;60.80;;;;;;6293728;28;20036;-85
2021/01/24 10:55:08;;;;;;;7.03;2.88;;;8.30;59.00;;;;;;6277108;28;20159;-79
2021/01/24 10:58:08;;;;;;;3.80;2.88;;;8.70;56.80;;;;;;6259937;28;20035;-80
2021/01/24 11:01:09;;;;;;;5.05;2.97;;;8.80;55.40;;;;;;6276511;28;20561;-77
2021/01/24 11:04:09;;;;;;;4.47;2.72;;;8.20;55.10;;;;;;6294094;28;20066;-79
2021/01/24 11:07:10;;;;;;;3.38;2.85;;;7.90;58.70;;;;;;6292710;28;20055;-78
2021/01/24 11:10:11;;;;;;;5.15;3.13;;;8.00;56.40;;;;;;6276352;28;20352;-78
2021/01/24 11:13:12;;;;;;;5.30;3.25;;;7.50;54.40;;;;;;6292708;28;20534;-77
2021/01/24 11:16:13;;;;;;;4.65;2.75;;;6.70;59.50;;;;;;6293731;28;20020;-78
2021/01/24 11:19:13;;;;;;;8.20;2.97;;;6.60;62.00;;;;;;6292772;28;20036;-77
2021/01/24 11:22:14;;;;;;;3.72;3.00;;;7.10;62.90;;;;;;6292012;28;20020;-76
2021/01/24 11:25:14;;;;;;;4.20;2.97;;;6.30;61.70;;;;;;6294282;28;20029;-75
2021/01/24 11:28:15;;;;;;;3.90;3.15;;;5.80;62.40;;;;;;6293039;28;20107;-76
2021/01/24 11:31:15;;;;;;;4.43;2.92;;;6.00;64.20;;;;;;6292622;28;20043;-76
2021/01/24 11:34:16;;;;;;;3.17;2.88;;;6.70;62.70;;;;;;6293354;28;20521;-77
2021/01/24 11:37:17;;;;;;;5.10;2.60;;;7.10;59.30;;;;;;6293451;28;20064;-78
2021/01/24 11:40:17;;;;;;;3.65;2.90;;;7.40;55.10;;;;;;6292095;28;20060;-76
2021/01/24 11:43:18;;;;;;;5.45;2.63;;;7.70;55.50;;;;;;6292816;28;20040;-77
2021/01/24 11:46:19;;;;;;;7.15;2.80;;;8.10;54.60;;;;;;6293412;28;20015;-78
2021/01/24 11:49:19;;;;;;;5.47;3.10;;;8.30;54.30;;;;;;6289682;28;20016;-80
2021/01/24 11:52:20;;;;;;;4.63;3.10;;;8.30;53.40;;;;;;6275533;28;20025;-77
2021/01/24 11:55:21;;;;;;;2.92;2.30;;;8.40;53.60;;;;;;6290826;28;20036;-78
2021/01/24 11:58:21;;;;;;;4.43;2.70;;;8.40;52.60;;;;;;6273932;28;20043;-77
2021/01/24 12:01:22;;;;;;;2.97;2.28;;;8.10;54.70;;;;;;6292878;28;20050;-77
2021/01/24 12:04:23;;;;;;;2.90;2.40;;;8.00;53.70;;;;;;6291710;28;20063;-77
2021/01/24 12:07:23;;;;;;;4.45;2.50;;;8.20;55.10;;;;;;6293323;28;20020;-78
2021/01/24 12:10:24;;;;;;;4.63;3.05;;;;;;;;;;6290346;28;20028;-78
2021/01/24 12:13:25;;;;;;;3.10;2.30;;;8.40;51.60;;;;;;6292923;28;20024;-77
2021/01/24 12:16:25;;;;;;;4.63;2.70;;;8.30;50.80;;;;;;6290989;28;20066;-78
2021/01/24 12:19:26;;;;;;;3.10;2.60;;;8.00;51.30;;;;;;6292465;28;20044;-78
2021/01/24 12:22:26;;;;;;;3.65;2.47;;;8.20;51.60;;;;;;6291699;28;20340;-77
2021/01/24 12:25:27;;;;;;;4.18;2.60;;;8.50;50.80;;;;;;6293094;28;20032;-78
2021/01/24 12:28:28;;;;;;;5.00;2.88;;;8.50;50.80;;;;;;6293159;28;20047;-78
2021/01/24 12:31:28;;;;;;;3.65;2.85;;;8.40;49.70;;;;;;6258456;28;20155;-77
2021/01/24 12:34:29;;;;;;;6.03;3.15;;;7.70;52.10;;;;;;6291560;28;20062;-77
2021/01/24 12:37:29;;;;;;;4.95;2.92;;;7.30;51.70;;;;;;6291357;28;20025;-77
2021/01/24 12:40:30;;;;;;;5.60;3.97;;;7.00;53.30;;;;;;6291028;28;20505;-77
2021/01/24 12:43:30;;;;;;;3.75;2.63;;;7.20;53.40;;;;;;6291513;28;20531;-77
2021/01/24 12:46:31;;;;;;;4.70;2.58;;;7.10;53.80;;;;;;6292796;28;20063;-77
2021/01/24 12:49:32;;;;;;;4.75;2.83;;;6.90;51.50;;;;;;6291394;28;20352;-77
2021/01/24 12:52:33;;;;;;;4.43;2.67;;;6.70;52.10;;;;;;6291517;28;20652;-77
2021/01/24 12:55:33;;;;;;;2.60;2.40;;;6.90;53.50;;;;;;6292222;28;20120;-77
2021/01/24 12:58:34;;;;;;;3.47;2.30;;;6.90;52.20;;;;;;6292283;28;20040;-77
2021/01/24 13:01:34;;;;;;;6.28;3.28;;;7.10;53.40;;;;;;6291075;28;20046;-77
2021/01/24 13:04:35;;;;;;;4.55;2.50;;;7.00;53.80;;;;;;6274517;28;20080;-77
2021/01/24 13:07:36;;;;;;;4.43;2.97;;;6.90;55.60;;;;;;6290955;28;20040;-77
2021/01/24 13:10:36;;;;;;;5.28;2.60;;;6.60;53.80;;;;;;6257626;28;20466;-77
2021/01/24 13:13:39;;;;;;;3.83;2.65;;;6.60;56.00;;;;;;6292164;28;20021;-78
2021/01/24 13:16:39;;;;;;;5.72;3.00;;;6.40;55.50;;;;;;6290952;28;20017;-77
2021/01/24 13:19:40;;;;;;;4.35;2.88;;;6.50;55.20;;;;;;6274294;28;20041;-77
2021/01/24 13:22:41;;;;;;;3.00;2.70;;;6.10;69.60;;;;;;6292195;28;20021;-77
2021/01/24 13:25:41;;;;;;;4.78;3.03;;;5.80;81.80;;;;;;6292508;28;20021;-77
2021/01/24 13:28:42;;;;;;;5.00;3.22;;;5.80;70.20;;;;;;6295328;28;20039;-76
2021/01/24 13:31:43;;;;;;;4.07;2.65;;;5.80;84.20;;;;;;6295299;28;20016;-77
2021/01/24 13:34:44;;;;;;;10.30;3.13;;;5.70;82.50;;;;;;6295707;28;20482;-77
2021/01/24 13:37:45;;;;;;;2.75;2.47;;;6.20;83.10;;;;;;6278744;28;20120;-77
2021/01/24 13:40:45;;;;;;;5.22;2.88;;;5.70;83.60;;;;;;6294926;28;20044;-77
2021/01/24 13:43:46;;;;;;;4.45;2.95;;;5.60;82.30;;;;;;6294918;28;20040;-77
2021/01/24 13:46:47;;;;;;;3.40;2.65;;;5.70;83.80;;;;;;6295042;28;20483;-77
2021/01/24 13:49:47;;;;;;;4.97;2.53;;;5.40;82.60;;;;;;6295302;28;20037;-77
2021/01/24 13:52:48;;;;;;;4.28;2.60;;;5.70;84.40;;;;;;6295310;28;20016;-77
2021/01/24 13:55:48;;;;;;;4.05;2.50;;;5.60;63.50;;;;;;6296551;28;20028;-77
2021/01/24 13:58:49;;;;;;;5.70;2.80;;;5.30;83.60;;;;;;6294464;28;20057;-76
2021/01/24 14:01:52;;;;;;;3.08;2.45;;;5.20;85.00;;;;;;6296227;28;20040;-76
2021/01/24 14:04:52;;;;;;;6.30;2.58;;;5.30;83.50;;;;;;6296233;28;20082;-76
2021/01/24 14:07:53;;;;;;;7.50;2.55;;;5.10;84.10;;;;;;6295793;28;20024;-78
2021/01/24 14:10:54;;;;;;;5.18;2.30;;;;;;;;;;6294377;28;20029;-76
2021/01/24 14:13:54;;;;;;;4.30;2.70;;;4.50;86.40;;;;;;6295708;28;20020;-77
2021/01/24 14:16:55;;;;;;;5.28;2.67;;;4.80;85.40;;;;;;6295449;28;20098;-77
2021/01/24 14:19:56;;;;;;;4.65;2.45;;;4.70;79.40;;;;;;6295667;28;20028;-77
2021/01/24 14:22:56;;;;;;;8.25;2.55;;;5.00;70.70;;;;;;6294286;28;20477;-77
2021/01/24 14:25:57;;;;;;;4.47;2.78;;;4.90;67.30;;;;;;6294253;28;20432;-77
2021/01/24 14:28:57;;;;;;;5.35;2.70;;;5.00;60.70;;;;;;6277602;28;20078;-76
2021/01/24 14:31:58;;;;;;;5.25;2.83;;;4.60;60.70;;;;;;6277438;28;20455;-76
2021/01/24 14:34:59;;;;;;;3.65;2.60;;;4.60;60.10;;;;;;6294249;28;20029;-77
2021/01/24 14:37:59;;;;;;;4.57;2.50;;;4.60;61.70;;;;;;6293611;28;20028;-77
2021/01/24 14:41:00;;;;;;;3.97;2.60;;;4.60;61.70;;;;;;6295340;28;20067;-77
2021/01/24 14:44:00;;;;;;;4.60;2.80;;;4.40;61.90;;;;;;6293672;28;20024;-76
2021/01/24 14:47:01;;;;;;;4.07;2.50;;;4.20;61.10;;;;;;6295242;28;20363;-77
2021/01/24 14:50:02;;;;;;;3.78;2.55;;;4.10;62.20;;;;;;6293740;28;20028;-77
2021/01/24 14:53:03;;;;;;;4.13;2.47;;;4.10;62.30;;;;;;6276868;28;20036;-77
2021/01/24 14:56:04;;;;;;;4.78;2.50;;;4.00;62.80;;;;;;6294909;28;20475;-76
2021/01/24 14:59:04;;;;;;;4.93;2.42;;;4.00;62.90;;;;;;6293608;28;20336;-77
2021/01/24 15:02:05;;;;;;;3.03;2.50;;;4.20;62.50;;;;;;6293561;28;20166;-77
2021/01/24 15:05:06;;;;;;;5.05;2.83;;;4.10;63.10;;;;;;6293695;28;20028;-76
2021/01/24 15:08:09;;;;;;;6.05;2.42;;;4.00;62.40;;;;;;6292993;28;20082;-76
2021/01/24 15:11:09;;;;;;;3.65;2.80;;;4.20;63.10;;;;;;6294687;28;20051;-78
2021/01/24 15:14:10;;;;;;;5.32;2.42;;;4.00;64.80;;;;;;6292555;28;20029;-77
2021/01/24 15:17:11;;;;;;;6.13;2.67;;;3.90;63.80;;;;;;6290693;28;20133;-76
2021/01/24 15:20:12;;;;;;;3.13;2.70;;;4.70;69.50;;;;;;6290972;28;20039;-77
2021/01/24 15:23:12;;;;;;;3.28;2.40;;;3.90;63.80;;;;;;6275441;28;20050;-77
2021/01/24 15:26:13;;;;;;;3.08;2.42;;;4.10;63.30;;;;;;6293961;28;20037;-76
2021/01/24 15:29:13;;;;;;;3.35;2.47;;;4.20;61.20;;;;;;6293654;28;20039;-76
2021/01/24 15:32:14;;;;;;;2.70;2.38;;;4.20;62.70;;;;;;6292228;28;20041;-76
2021/01/24 15:35:15;;;;;;;4.07;2.42;;;3.90;64.20;;;;;;6276196;28;20018;-79
2021/01/24 15:38:15;;;;;;;5.57;3.00;;;3.90;63.50;;;;;;6292776;28;20036;-77
2021/01/24 15:41:16;;;;;;;3.03;2.53;;;3.30;63.30;;;;;;6274995;28;20057;-75
2021/01/24 15:44:17;;;;;;;6.85;3.38;;;3.70;64.60;;;;;;6293846;28;20037;-76
2021/01/24 15:47:17;;;;;;;4.35;2.72;;;3.20;70.80;;;;;;6293770;28;20371;-79
2021/01/24 15:50:18;;;;;;;4.18;2.80;;;3.90;64.30;;;;;;6291822;28;20421;-76
2021/01/24 15:53:20;;;;;;;5.78;2.50;;;3.10;63.70;;;;;;6293270;28;20352;-77
2021/01/24 15:56:21;;;;;;;4.30;2.30;;;3.40;65.60;;;;;;6293639;28;20024;-76
2021/01/24 15:59:22;;;;;;;5.43;2.60;;;3.00;65.30;;;;;;6293064;28;20036;-77
2021/01/24 16:02:22;;;;;;;4.38;2.70;;;4.30;67.40;;;;;;6291776;28;20044;-77
2021/01/24 16:05:23;;;;;;;7.05;3.00;;;2.90;67.70;;;;;;6293083;28;20029;-77